createdAt,value
2022-08-17T00:01:35.164Z,99816.38
2022-08-17T00:04:19.349Z,99818.53
2022-08-17T00:06:47.547Z,99818.53
2022-08-17T00:09:19.070Z,99821.53
2022-08-17T00:12:35.115Z,99809.06
2022-08-17T00:14:34.151Z,99808.00
2022-08-17T00:17:00.864Z,99816.69
2022-08-17T00:19:27.588Z,99820.50
2022-08-17T00:22:30.907Z,99822.13
2022-08-17T00:24:44.203Z,99826.47
2022-08-17T00:27:12.909Z,99828.91
2022-08-17T00:29:39.647Z,99823.22
2022-08-17T00:33:12.432Z,99819.69
2022-08-17T00:34:53.256Z,99815.63
2022-08-17T00:37:20.019Z,99813.44
2022-08-17T00:39:46.771Z,99822.38
2022-08-17T00:42:15.599Z,99825.91
2022-08-17T00:44:43.224Z,99819.13
2022-08-17T00:47:16.107Z,99809.34
2022-08-17T00:49:44.771Z,99820.75
2022-08-17T00:52:16.798Z,99812.31
2022-08-17T00:54:47.410Z,99822.06
2022-08-17T00:57:23.629Z,99821.81
2022-08-17T01:00:02.384Z,99825.09
2022-08-17T01:02:34.400Z,99817.50
2022-08-17T01:05:09.549Z,99820.22
2022-08-17T01:07:37.830Z,99811.25
2022-08-17T01:10:06.645Z,99809.34
2022-08-17T01:12:35.244Z,99809.34
2022-08-17T01:15:01.891Z,99813.41
2022-08-17T01:17:28.599Z,99820.22
2022-08-17T01:19:55.243Z,99824.25
2022-08-17T01:22:23.463Z,99821.00
2022-08-17T01:24:53.660Z,99814.25
2022-08-17T01:27:21.407Z,99807.72
2022-08-17T01:29:52.045Z,99813.44
2022-08-17T01:32:19.429Z,99810.19
2022-08-17T01:34:50.435Z,99817.22
2022-08-17T01:37:20.471Z,99815.34
2022-08-17T01:39:53.014Z,99813.41
2022-08-17T01:42:24.568Z,99821.00
2022-08-17T01:44:55.106Z,99824.00
2022-08-17T01:47:21.805Z,99813.97
2022-08-17T01:49:49.160Z,99815.59
2022-08-17T01:52:16.064Z,99824.81
2022-08-17T01:54:45.681Z,99817.72
2022-08-17T01:57:12.764Z,99818.25
2022-08-17T01:59:40.003Z,99817.72
2022-08-17T02:02:08.778Z,99819.63
2022-08-17T02:04:35.438Z,99812.81
2022-08-17T02:07:02.148Z,99816.59
2022-08-17T02:09:30.409Z,99814.72
2022-08-17T02:12:00.050Z,99814.97
2022-08-17T02:14:46.684Z,99813.34
2022-08-17T02:17:13.483Z,99817.66
2022-08-17T02:19:44.934Z,99809.22
2022-08-17T02:22:14.738Z,99813.06
2022-08-17T02:24:59.537Z,99818.19
2022-08-17T02:27:28.795Z,99818.97
2022-08-17T02:29:55.500Z,99820.34
2022-08-17T02:32:28.164Z,99818.19
2022-08-17T02:34:59.820Z,99819.81
2022-08-17T02:37:30.760Z,99809.19
2022-08-17T02:39:58.515Z,99809.47
2022-08-17T02:42:28.972Z,99810.25
2022-08-17T02:44:55.704Z,99816.72
2022-08-17T02:47:22.358Z,99816.16
2022-08-17T02:49:54.270Z,99823.22
2022-08-17T02:52:42.945Z,99820.75
2022-08-17T02:55:17.963Z,99812.59
2022-08-17T02:57:45.353Z,99812.56
2022-08-17T03:00:21.190Z,99811.75
2022-08-17T03:02:51.385Z,99812.84
2022-08-17T03:05:21.503Z,99815.81
2022-08-17T03:07:48.437Z,99820.13
2022-08-17T03:10:15.597Z,99816.91
2022-08-17T03:12:44.055Z,99814.72
2022-08-17T03:15:28.842Z,99809.31
2022-08-17T03:17:56.766Z,99806.56
2022-08-17T03:20:24.919Z,99800.28
2022-08-17T03:22:53.996Z,99814.97
2022-08-17T03:25:24.975Z,99811.75
2022-08-17T03:27:52.021Z,99809.56
2022-08-17T03:30:18.852Z,99803.84
2022-08-17T03:32:49.552Z,99804.03
2022-08-17T03:35:19.039Z,99808.88
2022-08-17T03:37:46.313Z,99808.06
2022-08-17T03:40:13.317Z,99809.94
2022-08-17T03:42:41.062Z,99809.94
2022-08-17T03:45:15.379Z,99811.56
2022-08-17T03:48:00.787Z,99808.84
2022-08-17T03:50:45.940Z,99810.47
2022-08-17T03:53:35.024Z,99808.03
2022-08-17T03:56:21.829Z,99798.03
2022-08-17T03:58:49.281Z,99803.44
2022-08-17T04:01:17.424Z,99799.97
2022-08-17T04:03:44.097Z,99794.56
2022-08-17T04:06:10.728Z,99788.97
2022-08-17T04:08:37.384Z,99785.50
2022-08-17T04:11:04.139Z,99781.50
2022-08-17T04:13:30.798Z,99784.53
2022-08-17T04:15:59.173Z,99788.09
2022-08-17T04:18:26.069Z,99791.41
2022-08-17T04:20:52.823Z,99786.47
2022-08-17T04:23:19.645Z,99780.75
2022-08-17T04:25:49.179Z,99787.50
2022-08-17T04:28:17.913Z,99789.44
2022-08-17T04:30:45.642Z,99789.44
2022-08-17T04:33:14.041Z,99797.06
2022-08-17T04:35:44.862Z,99802.81
2022-08-17T04:38:16.702Z,99795.78
2022-08-17T04:41:02.064Z,99799.88
2022-08-17T04:43:29.763Z,99798.22
2022-08-17T04:46:05.796Z,99794.66
2022-08-17T04:48:37.463Z,99791.63
2022-08-17T04:51:13.184Z,99795.88
2022-08-17T04:53:41.925Z,99786.69
2022-08-17T04:56:11.752Z,99784.16
2022-08-17T04:58:48.193Z,99782.91
2022-08-17T05:01:23.306Z,99779.47
2022-08-17T05:03:56.722Z,99783.84
2022-08-17T05:06:34.117Z,99780.91
2022-08-17T05:09:00.854Z,99782.94
2022-08-17T05:11:28.812Z,99776.66
2022-08-17T05:14:03.249Z,99785.41
2022-08-17T05:16:30.175Z,99785.06
2022-08-17T05:18:58.612Z,99796.50
2022-08-17T05:21:32.838Z,99800.41
2022-08-17T05:23:59.612Z,99796.91
2022-08-17T05:26:29.329Z,99797.91
2022-08-17T05:29:03.952Z,99799.94
2022-08-17T05:31:30.890Z,99805.34
2022-08-17T05:33:58.237Z,99808.53
2022-08-17T05:36:38.129Z,99812.03
2022-08-17T05:39:15.882Z,99804.38
2022-08-17T05:41:43.472Z,99805.56
2022-08-17T05:44:10.754Z,99809.25
2022-08-17T05:46:40.611Z,99808.13
2022-08-17T05:49:08.637Z,99802.47
2022-08-17T05:52:03.053Z,99806.38
2022-08-17T05:55:03.269Z,99804.38
2022-08-17T05:57:35.618Z,99808.34
2022-08-17T06:00:20.633Z,99812.78
2022-08-17T06:03:11.837Z,99813.66
2022-08-17T06:06:14.611Z,99816.34
2022-08-17T06:09:07.836Z,99813.31
2022-08-17T06:11:53.979Z,99814.06
2022-08-17T06:14:49.379Z,99813.16
2022-08-17T06:17:19.278Z,99810.75
2022-08-17T06:19:51.337Z,99812.31
2022-08-17T06:22:34.188Z,99815.56
2022-08-17T06:25:04.157Z,99818.03
2022-08-17T06:27:36.762Z,99820.72
2022-08-17T06:30:12.580Z,99810.94
2022-08-17T06:32:43.469Z,99809.28
2022-08-17T06:35:20.570Z,99808.31
2022-08-17T06:37:53.197Z,99803.50
2022-08-17T06:40:28.899Z,99801.34
2022-08-17T06:43:33.206Z,99797.47
2022-08-17T06:46:02.948Z,99797.06
2022-08-17T06:48:47.253Z,99794.84
2022-08-17T06:51:25.868Z,99792.22
2022-08-17T06:54:17.086Z,99789.19
2022-08-17T06:57:07.819Z,99790.06
2022-08-17T06:59:55.563Z,99783.84
2022-08-17T07:02:52.680Z,99784.31
2022-08-17T07:05:24.945Z,99777.75
2022-08-17T07:08:11.536Z,99782.94
2022-08-17T07:10:43.290Z,99789.94
2022-08-17T07:13:22.047Z,99789.66
2022-08-17T07:15:51.800Z,99783.38
2022-08-17T07:18:26.851Z,99792.25
2022-08-17T07:20:57.727Z,99782.53
2022-08-17T07:24:00.743Z,99784.47
2022-08-17T07:26:27.999Z,99783.16
2022-08-17T07:28:57.993Z,99782.31
2022-08-17T07:31:26.427Z,99780.53
2022-08-17T07:34:06.815Z,99780.28
2022-08-17T07:36:34.378Z,99789.72
2022-08-17T07:39:02.566Z,99777.53
2022-08-17T07:41:57.878Z,99785.63
2022-08-17T07:44:22.412Z,99796.03
2022-08-17T07:47:10.279Z,99789.34
2022-08-17T07:49:39.869Z,99789.81
2022-08-17T07:52:24.273Z,99786.06
2022-08-17T07:54:59.560Z,99790.75
2022-08-17T07:57:35.386Z,99792.00
2022-08-17T08:00:02.031Z,99787.06
2022-08-17T08:02:41.372Z,99799.28
2022-08-17T08:05:29.868Z,99799.16
2022-08-17T08:08:42.608Z,99799.91
2022-08-17T08:11:15.446Z,99790.91
2022-08-17T08:13:45.537Z,99789.88
2022-08-17T08:16:38.945Z,99796.31
2022-08-17T08:19:05.770Z,99796.97
2022-08-17T08:21:51.268Z,99800.59
2022-08-17T08:24:33.158Z,99805.47
2022-08-17T08:27:21.054Z,99808.41
2022-08-17T08:30:21.304Z,99806.78
2022-08-17T08:33:08.625Z,99802.56
2022-08-17T08:36:12.182Z,99805.94
2022-08-17T08:39:04.140Z,99812.97
2022-08-17T08:41:36.310Z,99812.38
2022-08-17T08:44:21.622Z,99810.34
2022-08-17T08:47:30.630Z,99812.66
2022-08-17T08:50:37.728Z,99805.53
2022-08-17T08:53:14.295Z,99804.13
2022-08-17T08:55:53.652Z,99816.06
2022-08-17T08:58:32.212Z,99823.50
2022-08-17T09:01:17.551Z,99822.38
2022-08-17T09:04:24.550Z,99823.97
2022-08-17T09:07:00.982Z,99818.63
2022-08-17T09:10:22.541Z,99815.38
2022-08-17T09:13:11.913Z,99811.34
2022-08-17T09:15:57.350Z,99814.19
2022-08-17T09:19:00.417Z,99814.34
2022-08-17T09:21:33.880Z,99819.75
2022-08-17T09:24:12.828Z,99810.88
2022-08-17T09:26:50.041Z,99810.41
2022-08-17T09:29:17.470Z,99812.22
2022-08-17T09:31:50.270Z,99812.63
2022-08-17T09:34:22.341Z,99809.75
2022-08-17T09:37:23.548Z,99803.22
2022-08-17T09:39:55.524Z,99809.75
2022-08-17T09:42:33.271Z,99797.75
2022-08-17T09:45:36.986Z,99793.81
2022-08-17T09:48:13.714Z,99803.44
2022-08-17T09:51:05.263Z,99800.78
2022-08-17T09:53:33.162Z,99791.69
2022-08-17T09:56:25.283Z,99798.41
2022-08-17T09:59:38.619Z,99795.28
2022-08-17T10:02:25.215Z,99803.72
2022-08-17T10:05:09.687Z,99799.66
2022-08-17T10:07:46.514Z,99796.88
2022-08-17T10:10:25.812Z,99794.38
2022-08-17T10:13:00.088Z,99794.44
2022-08-17T10:16:25.885Z,99791.78
2022-08-17T10:19:03.711Z,99790.53
2022-08-17T10:22:00.861Z,99779.59
2022-08-17T10:25:21.727Z,99779.31
2022-08-17T10:27:52.834Z,99778.56
2022-08-17T10:30:22.547Z,99777.78
2022-08-17T10:32:50.441Z,99783.16
2022-08-17T10:35:25.916Z,99776.13
2022-08-17T10:38:17.345Z,99774.84
2022-08-17T10:40:49.883Z,99774.44
2022-08-17T10:43:31.366Z,99773.31
2022-08-17T10:46:10.396Z,99770.63
2022-08-17T10:49:11.710Z,99772.50
2022-08-17T10:51:40.516Z,99762.94
2022-08-17T10:54:27.686Z,99774.44
2022-08-17T10:56:56.116Z,99771.31
2022-08-17T10:59:35.045Z,99773.53
2022-08-17T11:02:12.357Z,99774.13
2022-08-17T11:05:00.913Z,99770.69
2022-08-17T11:08:05.532Z,99763.34
2022-08-17T11:11:06.839Z,99753.66
2022-08-17T11:14:11.031Z,99760.09
2022-08-17T11:16:37.831Z,99752.94
2022-08-17T11:19:10.261Z,99753.94
2022-08-17T11:22:05.845Z,99747.69
2022-08-17T11:24:47.748Z,99745.22
2022-08-17T11:27:26.618Z,99756.91
2022-08-17T11:30:01.519Z,99755.31
2022-08-17T11:32:47.154Z,99749.03
2022-08-17T11:35:30.304Z,99742.66
2022-08-17T11:38:18.726Z,99739.38
2022-08-17T11:41:12.821Z,99749.91
2022-08-17T11:44:12.584Z,99747.59
2022-08-17T11:47:16.664Z,99746.28
2022-08-17T11:50:16.748Z,99750.41
2022-08-17T11:52:49.114Z,99746.31
2022-08-17T11:55:40.719Z,99761.13
2022-08-17T11:58:37.362Z,99761.50
2022-08-17T12:01:10.077Z,99757.59
2022-08-17T12:03:55.653Z,99752.84
2022-08-17T12:06:34.447Z,99759.31
2022-08-17T12:09:16.237Z,99760.84
2022-08-17T12:12:13.163Z,99758.06
2022-08-17T12:15:09.008Z,99763.03
2022-08-17T12:17:40.691Z,99762.56
2022-08-17T12:20:24.987Z,99767.25
2022-08-17T12:22:54.856Z,99765.69
2022-08-17T12:25:33.022Z,99760.84
2022-08-17T12:28:05.990Z,99770.16
2022-08-17T12:30:34.178Z,99762.44
2022-08-17T12:33:00.839Z,99762.41
2022-08-17T12:35:36.666Z,99763.16
2022-08-17T12:38:32.163Z,99762.75
2022-08-17T12:40:58.017Z,99754.97
2022-08-17T12:43:27.874Z,99758.25
2022-08-17T12:46:01.255Z,99756.06
2022-08-17T12:48:59.867Z,99747.69
2022-08-17T12:51:28.987Z,99751.84
2022-08-17T12:53:55.932Z,99746.66
2022-08-17T12:56:27.009Z,99750.53
2022-08-17T12:58:56.593Z,99750.22
2022-08-17T13:01:24.908Z,99753.81
2022-08-17T13:03:54.200Z,99752.53
2022-08-17T13:06:33.120Z,99748.53
2022-08-17T13:09:36.107Z,99744.16
2022-08-17T13:12:07.682Z,99748.66
2022-08-17T13:14:35.149Z,99747.84
2022-08-17T13:17:13.302Z,99749.84
2022-08-17T13:19:52.124Z,99746.81
2022-08-17T13:22:23.084Z,99734.94
2022-08-17T13:24:55.862Z,99746.56
2022-08-17T13:27:25.302Z,99744.25
2022-08-17T13:29:55.418Z,99743.22
2022-08-17T13:32:43.690Z,99738.66
2022-08-17T13:35:39.210Z,99747.84
2022-08-17T13:38:29.503Z,99744.94
2022-08-17T13:40:56.183Z,99743.03
2022-08-17T13:43:40.798Z,99733.59
2022-08-17T13:46:10.649Z,99737.41
2022-08-17T13:48:37.416Z,99732.22
2022-08-17T13:51:12.715Z,99732.22
2022-08-17T13:53:40.201Z,99734.19
2022-08-17T13:56:33.430Z,99730.50
2022-08-17T13:59:03.097Z,99727.03
2022-08-17T14:01:29.775Z,99722.31
2022-08-17T14:03:57.202Z,99723.59
2022-08-17T14:06:52.414Z,99721.53
2022-08-17T14:09:16.300Z,99712.34
2022-08-17T14:11:44.976Z,99710.97
2022-08-17T14:14:13.784Z,99711.53
2022-08-17T14:16:41.788Z,99712.44
2022-08-17T14:19:13.167Z,99709.47
2022-08-17T14:21:42.734Z,99711.19
2022-08-17T14:24:20.827Z,99705.66
2022-08-17T14:26:52.890Z,99713.13
2022-08-17T14:29:24.949Z,99704.59
2022-08-17T14:31:54.442Z,99707.97
2022-08-17T14:34:22.832Z,99700.47
2022-08-17T14:36:49.538Z,99703.31
2022-08-17T14:39:17.429Z,99705.13
2022-08-17T14:41:44.545Z,99706.03
2022-08-17T14:44:12.490Z,99706.50
2022-08-17T14:46:40.904Z,99701.03
2022-08-17T14:49:08.881Z,99697.88
2022-08-17T14:51:44.182Z,99700.97
2022-08-17T14:54:33.026Z,99691.72
2022-08-17T14:57:23.413Z,99695.66
2022-08-17T14:59:47.171Z,99696.31
2022-08-17T15:02:13.787Z,99700.50
2022-08-17T15:04:45.408Z,99692.16
2022-08-17T15:07:12.405Z,99693.50
2022-08-17T15:09:39.146Z,99691.69
2022-08-17T15:12:08.555Z,99701.00
2022-08-17T15:14:35.911Z,99689.38
2022-08-17T15:17:05.664Z,99680.19
2022-08-17T15:19:32.309Z,99679.56
2022-08-17T15:21:58.964Z,99681.03
2022-08-17T15:24:25.739Z,99686.47
2022-08-17T15:26:52.417Z,99681.41
2022-08-17T15:29:19.051Z,99685.66
2022-08-17T15:31:45.780Z,99679.09
2022-08-17T15:34:12.540Z,99686.88
2022-08-17T15:36:47.920Z,99672.88
2022-08-17T15:39:19.758Z,99670.09
2022-08-17T15:41:47.322Z,99672.00
2022-08-17T15:44:32.445Z,99665.50
2022-08-17T15:47:02.123Z,99664.16
2022-08-17T15:49:30.575Z,99672.63
2022-08-17T15:51:57.287Z,99674.03
2022-08-17T15:54:23.972Z,99676.88
2022-08-17T15:56:50.873Z,99690.06
2022-08-17T15:59:17.830Z,99679.28
2022-08-17T16:03:04.671Z,99679.91
2022-08-17T16:04:33.886Z,99669.13
2022-08-17T16:07:00.627Z,99668.81
2022-08-17T16:09:28.191Z,99662.03
2022-08-17T16:11:56.127Z,99670.34
2022-08-17T16:14:35.038Z,99665.63
2022-08-17T16:17:03.170Z,99671.19
2022-08-17T16:19:29.922Z,99667.84
2022-08-17T16:21:56.616Z,99665.75
2022-08-17T16:24:23.224Z,99668.88
2022-08-17T16:26:49.908Z,99658.72
2022-08-17T16:29:16.659Z,99660.72
2022-08-17T16:31:43.380Z,99664.53
2022-08-17T16:34:17.069Z,99659.31
2022-08-17T16:36:55.433Z,99663.16
2022-08-17T16:39:28.959Z,99661.66
2022-08-17T16:41:56.612Z,99661.47
2022-08-17T16:44:23.674Z,99663.94
2022-08-17T16:46:50.534Z,99662.06
2022-08-17T16:49:24.423Z,99666.81
2022-08-17T16:52:06.333Z,99667.34
2022-08-17T16:54:33.477Z,99676.53
2022-08-17T16:57:00.249Z,99674.31
2022-08-17T16:59:31.818Z,99684.19
2022-08-17T17:02:11.005Z,99697.41
2022-08-17T17:04:50.433Z,99688.03
2022-08-17T17:07:38.383Z,99695.09
2022-08-17T17:10:12.488Z,99694.25
2022-08-17T17:13:02.606Z,99689.69
2022-08-17T17:15:39.633Z,99691.03
2022-08-17T17:18:12.126Z,99682.06
2022-08-17T17:20:47.483Z,99690.06
2022-08-17T17:23:14.313Z,99689.09
2022-08-17T17:25:48.908Z,99692.78
2022-08-17T17:28:53.316Z,99691.19
2022-08-17T17:31:23.817Z,99699.69
2022-08-17T17:33:54.582Z,99699.47
2022-08-17T17:36:51.786Z,99699.38
2022-08-17T17:39:51.321Z,99695.53
2022-08-17T17:42:24.430Z,99703.31
2022-08-17T17:45:16.765Z,99692.97
2022-08-17T17:47:46.980Z,99702.03
2022-08-17T17:50:16.749Z,99704.94
2022-08-17T17:52:49.369Z,99705.25
2022-08-17T17:55:34.597Z,99703.47
2022-08-17T17:58:07.261Z,99707.63
2022-08-17T18:00:49.141Z,99700.16
2022-08-17T18:03:27.978Z,99701.28
2022-08-17T18:06:24.214Z,99699.06
2022-08-17T18:08:57.223Z,99703.47
2022-08-17T18:11:39.827Z,99704.78
2022-08-17T18:14:25.286Z,99710.75
2022-08-17T18:16:55.931Z,99711.13
2022-08-17T18:19:30.650Z,99719.66
2022-08-17T18:22:14.033Z,99709.19
2022-08-17T18:24:44.729Z,99710.28
2022-08-17T18:27:25.583Z,99710.63
2022-08-17T18:29:54.583Z,99714.06
2022-08-17T18:32:33.673Z,99713.66
2022-08-17T18:35:09.390Z,99730.16
2022-08-17T18:37:46.798Z,99726.13
2022-08-17T18:40:17.826Z,99726.41
2022-08-17T18:42:50.237Z,99730.75
2022-08-17T18:45:31.029Z,99734.81
2022-08-17T18:47:57.847Z,99737.66
2022-08-17T18:50:28.390Z,99738.25
2022-08-17T18:53:20.692Z,99736.44
2022-08-17T18:56:16.400Z,99737.97
2022-08-17T18:58:50.661Z,99736.75
2022-08-17T19:01:20.003Z,99736.03
2022-08-17T19:03:46.887Z,99736.13
2022-08-17T19:06:20.332Z,99738.88
2022-08-17T19:08:47.035Z,99735.34
2022-08-17T19:11:32.378Z,99731.16
2022-08-17T19:14:04.236Z,99730.25
2022-08-17T19:16:59.007Z,99731.06
2022-08-17T19:19:32.457Z,99727.72
2022-08-17T19:22:27.011Z,99730.97
2022-08-17T19:25:16.061Z,99738.06
2022-08-17T19:27:57.411Z,99738.66
2022-08-17T19:30:24.911Z,99739.06
2022-08-17T19:32:53.046Z,99735.72
2022-08-17T19:35:20.743Z,99729.16
2022-08-17T19:38:19.901Z,99733.91
2022-08-17T19:40:54.480Z,99738.66
2022-08-17T19:43:25.562Z,99743.78
2022-08-17T19:46:14.962Z,99745.06
2022-08-17T19:49:07.462Z,99748.47
2022-08-17T19:51:51.190Z,99754.38
2022-08-17T19:54:44.144Z,99754.47
2022-08-17T19:57:18.491Z,99770.75
2022-08-17T19:59:54.265Z,99768.94
2022-08-17T20:02:26.940Z,99769.81
2022-08-17T20:04:56.928Z,99762.38
2022-08-17T20:07:28.728Z,99773.78
2022-08-17T20:10:04.032Z,99774.59
2022-08-17T20:12:36.759Z,99784.75
2022-08-17T20:15:10.616Z,99797.75
2022-08-17T20:17:44.061Z,99793.00
2022-08-17T20:20:38.731Z,99798.47
2022-08-17T20:23:26.413Z,99799.22
2022-08-17T20:25:52.953Z,99805.34
2022-08-17T20:28:23.874Z,99806.75
2022-08-17T20:30:51.280Z,99808.16
2022-08-17T20:33:28.949Z,99809.81
2022-08-17T20:36:04.935Z,99803.09
2022-08-17T20:38:40.162Z,99799.91
2022-08-17T20:41:13.875Z,99796.38
2022-08-17T20:43:40.580Z,99791.78
2022-08-17T20:46:20.520Z,99801.47
2022-08-17T20:48:51.009Z,99797.00
2022-08-17T20:51:17.986Z,99796.72
2022-08-17T20:53:47.603Z,99802.25
2022-08-17T20:56:43.646Z,99795.47
2022-08-17T20:59:24.071Z,99809.44
2022-08-17T21:02:08.933Z,99812.88
2022-08-17T21:04:49.873Z,99817.91
2022-08-17T21:07:33.149Z,99818.09
2022-08-17T21:10:17.261Z,99822.91
2022-08-17T21:12:49.716Z,99823.25
2022-08-17T21:15:53.969Z,99832.91
2022-08-17T21:18:40.853Z,99842.03
2022-08-17T21:21:29.245Z,99841.75
2022-08-17T21:24:04.889Z,99841.66
2022-08-17T21:26:50.276Z,99841.59
2022-08-17T21:29:32.368Z,99843.53
2022-08-17T21:32:03.514Z,99844.69
2022-08-17T21:34:38.044Z,99848.44
2022-08-17T21:37:20.030Z,99849.53
2022-08-17T21:39:51.045Z,99846.63
2022-08-17T21:42:23.220Z,99855.97
2022-08-17T21:44:52.552Z,99852.81
2022-08-17T21:47:23.653Z,99862.31
2022-08-17T21:49:51.687Z,99864.47
2022-08-17T21:52:22.806Z,99874.38
2022-08-17T21:54:52.272Z,99884.19
2022-08-17T21:57:27.480Z,99882.56
2022-08-17T21:59:57.481Z,99885.38
2022-08-17T22:02:30.281Z,99883.75
2022-08-17T22:05:00.044Z,99888.38
2022-08-17T22:07:34.882Z,99888.72
2022-08-17T22:10:01.559Z,99892.88
2022-08-17T22:12:28.297Z,99897.59
2022-08-17T22:15:00.909Z,99901.19
2022-08-17T22:17:39.541Z,99904.75
2022-08-17T22:20:07.057Z,99916.78
2022-08-17T22:23:05.671Z,99916.78
2022-08-17T22:25:36.299Z,99927.97
2022-08-17T22:28:08.227Z,99935.59
2022-08-17T22:30:43.838Z,99940.75
2022-08-17T22:33:29.354Z,99950.31
2022-08-17T22:36:14.424Z,99946.50
2022-08-17T22:38:43.673Z,99952.22
2022-08-17T22:41:16.620Z,99946.78
2022-08-17T22:43:44.822Z,99953.09
2022-08-17T22:46:12.206Z,99959.63
2022-08-17T22:48:50.111Z,99965.84
2022-08-17T22:51:24.384Z,99971.84
2022-08-17T22:54:14.311Z,99971.91
2022-08-17T22:57:18.893Z,99972.16
2022-08-17T22:59:55.767Z,99965.94
2022-08-17T23:02:32.400Z,99961.56
2022-08-17T23:05:14.207Z,99968.66
2022-08-17T23:07:42.510Z,99977.66
2022-08-17T23:10:11.596Z,99963.50
2022-08-17T23:12:39.609Z,99968.66
2022-08-17T23:15:17.483Z,99966.22
2022-08-17T23:17:45.495Z,99970.34
2022-08-17T23:20:13.943Z,99963.25
2022-08-17T23:22:51.855Z,99964.63
2022-08-17T23:25:29.793Z,99963.53
2022-08-17T23:27:58.321Z,99969.47
2022-08-17T23:30:25.703Z,99978.47
2022-08-17T23:32:54.185Z,99970.03
2022-08-17T23:35:39.289Z,99968.38
2022-08-17T23:38:09.730Z,99967.56
2022-08-17T23:40:37.722Z,99969.72
2022-08-17T23:43:11.518Z,99963.47
2022-08-17T23:45:53.975Z,99968.94
2022-08-17T23:48:27.797Z,99969.25
2022-08-17T23:51:05.903Z,99967.34
2022-08-17T23:53:34.847Z,99969.81
2022-08-17T23:56:03.924Z,99962.75
2022-08-17T23:58:38.422Z,99970.13
